Greenfield, MA (01301)

10:46 PM EST on February 10, 2016 (GMT -0500)
Beacon Field | | Change Station
CLOSE
Current Station
Personal Weather Station
Location: Greenfield, MA
Elevation: 289 ft
Nearby Weather Stations
Active Advisory: Special Statement

Elev 289 ft 42.60 °N, 72.59 °W | Updated 23 seconds ago

Partly Cloudy
Partly Cloudy
29.6 °F
Feels Like 30 °F
N
1.0
Wind Variable Wind from WSW
Gusts 1.0 mph

Today
High -- | Low -- °F
--% Chance of Precip.
Yesterday
High -- | Low -- °F
Precip. -- in
Pressure 29.66 in
Visibility 10.0 miles
Clouds Clear
Windchill 30 °F
Dew Point 20 °F
Humidity 68%
Rainfall 0.02 in
Snow Depth Not available.
6:54 AM 5:15 PM
Waxing Crescent, 9% visible
METAR KORE 110252Z AUTO 27007KT 10SM CLR M03/M08 A2963 RMK AO2 SLP042 T10331083 51008
Pressure 29.66 in
Visibility 10.0 miles
Clouds Clear
Windchill 30 °F
Dew Point 20 °F
Humidity 68%
Rainfall 0.02 in
Snow Depth Not available.
6:54 AM 5:15 PM
Waxing Crescent, 9% visible
METAR KORE 110252Z AUTO 27007KT 10SM CLR M03/M08 A2963 RMK AO2 SLP042 T10331083 51008

10-Day Weather Forecast

Almanac

Astronomy

Feb. 10, 2016 Rise Set
Actual Time
Civil Twilight
Nautical Twilight
Astronomical Twilight
Moon
Length of Visible Light
Length of Day
Tomorrow will be .
, % of the Moon is Illuminated

Today's Extremes

State Highs State Lows

Community

WunderPhotos

Upload Photos

1,892,000 photos uploaded!

WunderBlog® & News

Nearby

Air Quality

  Air Quality AQ Index Pollutant
Not available.

Snow Depth

Station Depth Elevation

Earthquake Activity

City Distance Mag. Time & Date
Minimum magnitude displayed is 2.5.

Coastal Water Temperatures

Place Temperature

Stations

Nearby Weather Stations

Station Location Temp. Windchill Dew Point Humidity Wind Precip. Elev Updated Type
                   

Watches & Warnings

Special Statement
Issued: 7:53 PM EST Feb. 10, 2016 – National Weather Service

... Patchy black ice may develop this evening...

Isolated snow showers will be coming to an end this evening.
However... temperatures were dropping below freezing and winds
were rather light. This may allow patchy black ice to develop on
wet roads and walkways from the earlier snow showers. Motorists
are urged to drive with extra caution this evening as roads that
appear wet may be icy.


Frank


753 PM EST Wed Feb 10 2016

... Patchy black ice may develop this evening...

Isolated snow showers will be coming to an end this evening.
However... temperatures were dropping below freezing and winds
were rather light. This may allow patchy black ice to develop on
wet roads and walkways from the earlier snow showers. Motorists
are urged to drive with extra caution this evening as roads that
appear wet may be icy.


Frank